Plato, Minnesota
Current Conditions -  °F | °C
As of 7:54 PM on Friday 21 Nov 2014 (Local Time) from KGYL Reporting Station
Clear Clear  
Wind Chill: 21°   Ceiling: Unl
Heat Index: 29°   Visibility: 10mi
Dew Point: 24°   Wind: 9mph
Humidity: 83%   Direction: 180°S
Pressure: 29.91"   Gusts: NA
Location:  44.77°N, 94.04°W
Report Text: KGYL 220154Z AUTO 18008KT 10SM CLR M02/M04 A2991 RMK AO2 T10161042
Loading
Personal Weather Stations






























Interactive Weather Map New forecast layout! Learn more

10-Day Weather Forecast

Advertisements
Track Severe Weather on mobile